TimeEDT,TemperatureF,Dew PointF,Humidity,Sea Level PressureIn,VisibilityMPH,Wind Direction,Wind SpeedMPH,Gust SpeedMPH,PrecipitationIn,Events,Conditions,WindDirDegrees,DateUTC
12:54 AM,66.0,62.1,87,30.12,5.0,Calm,Calm,-,N/A,,Clear,0,2008-08-21 04:54:00
1:54 AM,64.0,61.0,90,30.12,5.0,Calm,Calm,-,N/A,,Clear,0,2008-08-21 05:54:00
2:54 AM,62.1,61.0,96,30.12,3.0,Calm,Calm,-,N/A,,Clear,0,2008-08-21 06:54:00
3:54 AM,61.0,60.1,97,30.12,4.0,Calm,Calm,-,N/A,,Clear,0,2008-08-21 07:54:00
4:15 AM,60.8,60.8,100,30.19,1.8,Calm,Calm,-,N/A,,Clear,0,2008-08-21 08:15:00
4:35 AM,60.8,60.8,100,30.20,1.2,Calm,Calm,-,N/A,,Clear,0,2008-08-21 08:35:00
4:41 AM,60.8,60.8,100,30.20,2.0,Calm,Calm,-,N/A,,Clear,0,2008-08-21 08:41:00
4:52 AM,60.8,60.8,100,30.20,3.0,Calm,Calm,-,N/A,,Clear,0,2008-08-21 08:52:00
4:54 AM,60.1,59.0,96,30.12,3.0,Calm,Calm,-,N/A,,Clear,0,2008-08-21 08:54:00
5:46 AM,60.8,59.0,94,30.20,2.5,SSE,4.6,-,N/A,,Clear,150,2008-08-21 09:46:00
5:54 AM,60.1,59.0,96,30.13,2.5,SSE,4.6,-,N/A,,Clear,150,2008-08-21 09:54:00
6:05 AM,60.8,59.0,94,30.20,3.0,Calm,Calm,-,N/A,,Clear,0,2008-08-21 10:05:00
6:49 AM,59.0,59.0,100,30.22,1.8,Calm,Calm,-,N/A,,Partly Cloudy,0,2008-08-21 10:49:00
6:54 AM,59.0,59.0,100,30.15,1.5,Calm,Calm,-,N/A,,Partly Cloudy,0,2008-08-21 10:54:00
7:17 AM,60.8,59.0,94,30.22,2.5,Calm,Calm,-,N/A,,Partly Cloudy,0,2008-08-21 11:17:00
7:51 AM,60.8,59.0,94,30.23,2.5,Calm,Calm,-,N/A,,Mostly Cloudy,0,2008-08-21 11:51:00
7:54 AM,61.0,59.0,93,30.17,2.5,Calm,Calm,-,N/A,,Mostly Cloudy,0,2008-08-21 11:54:00
8:18 AM,62.6,60.8,94,30.24,3.0,Calm,Calm,-,N/A,,Scattered Clouds,0,2008-08-21 12:18:00
8:54 AM,64.9,62.1,90,30.19,4.0,Calm,Calm,-,N/A,,Clear,0,2008-08-21 12:54:00
9:54 AM,72.0,61.0,68,30.19,6.0,Variable,5.8,-,N/A,,Haze,0,2008-08-21 13:54:00
10:54 AM,73.9,59.0,59,30.20,10.0,SE,8.1,-,N/A,,Clear,130,2008-08-21 14:54:00
11:54 AM,77.0,57.0,50,30.20,10.0,East,11.5,16.1,N/A,,Clear,100,2008-08-21 15:54:00
12:54 PM,78.1,57.0,48,30.18,10.0,SE,8.1,-,N/A,,Scattered Clouds,130,2008-08-21 16:54:00
1:54 PM,79.0,57.9,48,30.19,10.0,East,9.2,16.1,N/A,,Scattered Clouds,100,2008-08-21 17:54:00
2:54 PM,80.6,57.2,45,30.24,10.0,East,9.2,-,N/A,,Scattered Clouds,100,2008-08-21 18:54:00
3:54 PM,78.8,57.2,47,30.23,10.0,ESE,8.1,18.4,N/A,,Scattered Clouds,110,2008-08-21 19:54:00
4:54 PM,78.1,59.0,52,30.15,10.0,ESE,9.2,-,N/A,,Scattered Clouds,120,2008-08-21 20:54:00
5:54 PM,78.1,57.9,50,30.14,10.0,Variable,6.9,-,N/A,,Mostly Cloudy,0,2008-08-21 21:54:00
6:54 PM,77.0,59.0,54,30.14,10.0,ESE,5.8,-,N/A,,Clear,120,2008-08-21 22:54:00
7:54 PM,75.9,59.0,56,30.14,10.0,Calm,Calm,-,N/A,,Clear,0,2008-08-21 23:54:00
8:54 PM,73.0,60.1,64,30.15,10.0,Calm,Calm,-,N/A,,Clear,0,2008-08-22 00:54:00
9:54 PM,70.0,60.1,71,30.16,10.0,Calm,Calm,-,N/A,,Scattered Clouds,0,2008-08-22 01:54:00
10:54 PM,69.1,60.1,73,30.17,10.0,Calm,Calm,-,N/A,,Scattered Clouds,0,2008-08-22 02:54:00
11:54 PM,69.1,62.1,78,30.17,7.0,Calm,Calm,-,N/A,,Overcast,0,2008-08-22 03:54:00